sensor_id;sensor_type;location;lat;lon;timestamp;P1;durP1;ratioP1;P2;durP2;ratioP2
63110;SDS011;49201;53.426;10.300;2022-07-29T00:00:12;4.93;;;1.80;;
63110;SDS011;49201;53.426;10.300;2022-07-29T00:02:38;3.33;;;1.80;;
63110;SDS011;49201;53.426;10.300;2022-07-29T00:05:04;2.93;;;1.60;;
63110;SDS011;49201;53.426;10.300;2022-07-29T00:07:30;2.67;;;1.57;;
63110;SDS011;49201;53.426;10.300;2022-07-29T00:09:56;4.73;;;1.63;;
63110;SDS011;49201;53.426;10.300;2022-07-29T00:12:23;5.17;;;1.70;;
63110;SDS011;49201;53.426;10.300;2022-07-29T00:14:49;2.93;;;1.47;;
63110;SDS011;49201;53.426;10.300;2022-07-29T00:17:15;4.43;;;2.03;;
63110;SDS011;49201;53.426;10.300;2022-07-29T00:19:41;4.47;;;1.60;;
63110;SDS011;49201;53.426;10.300;2022-07-29T00:22:06;9.63;;;2.20;;
63110;SDS011;49201;53.426;10.300;2022-07-29T00:24:32;3.50;;;1.70;;
63110;SDS011;49201;53.426;10.300;2022-07-29T00:26:57;4.23;;;1.83;;
63110;SDS011;49201;53.426;10.300;2022-07-29T00:29:23;7.23;;;2.23;;
63110;SDS011;49201;53.426;10.300;2022-07-29T00:31:48;4.47;;;2.13;;
63110;SDS011;49201;53.426;10.300;2022-07-29T00:34:14;5.73;;;2.10;;
63110;SDS011;49201;53.426;10.300;2022-07-29T00:36:58;6.83;;;2.10;;
63110;SDS011;49201;53.426;10.300;2022-07-29T00:39:23;2.50;;;1.60;;
63110;SDS011;49201;53.426;10.300;2022-07-29T00:41:49;5.00;;;2.07;;
63110;SDS011;49201;53.426;10.300;2022-07-29T00:44:15;5.53;;;2.57;;
63110;SDS011;49201;53.426;10.300;2022-07-29T00:46:40;5.47;;;2.30;;
63110;SDS011;49201;53.426;10.300;2022-07-29T00:49:06;4.97;;;2.00;;
63110;SDS011;49201;53.426;10.300;2022-07-29T00:51:35;3.83;;;2.33;;
63110;SDS011;49201;53.426;10.300;2022-07-29T00:54:02;4.17;;;2.10;;
63110;SDS011;49201;53.426;10.300;2022-07-29T00:56:29;5.80;;;1.77;;
63110;SDS011;49201;53.426;10.300;2022-07-29T00:58:56;3.77;;;2.03;;
63110;SDS011;49201;53.426;10.300;2022-07-29T01:01:22;2.43;;;1.60;;
63110;SDS011;49201;53.426;10.300;2022-07-29T01:03:48;6.20;;;2.03;;
63110;SDS011;49201;53.426;10.300;2022-07-29T01:06:14;4.40;;;2.10;;
63110;SDS011;49201;53.426;10.300;2022-07-29T01:08:41;4.67;;;2.30;;
63110;SDS011;49201;53.426;10.300;2022-07-29T01:11:07;2.70;;;1.80;;
63110;SDS011;49201;53.426;10.300;2022-07-29T01:13:34;3.37;;;2.07;;
63110;SDS011;49201;53.426;10.300;2022-07-29T01:16:02;4.33;;;2.03;;
63110;SDS011;49201;53.426;10.300;2022-07-29T01:18:37;7.40;;;2.53;;
63110;SDS011;49201;53.426;10.300;2022-07-29T01:23:52;5.10;;;2.10;;
63110;SDS011;49201;53.426;10.300;2022-07-29T01:29:32;6.70;;;2.30;;
63110;SDS011;49201;53.426;10.300;2022-07-29T01:32:11;5.43;;;2.43;;
63110;SDS011;49201;53.426;10.300;2022-07-29T01:34:45;5.90;;;2.20;;
63110;SDS011;49201;53.426;10.300;2022-07-29T01:39:58;6.63;;;2.47;;
63110;SDS011;49201;53.426;10.300;2022-07-29T01:42:43;5.63;;;2.53;;
63110;SDS011;49201;53.426;10.300;2022-07-29T01:45:14;5.97;;;2.53;;
63110;SDS011;49201;53.426;10.300;2022-07-29T01:50:25;7.37;;;2.47;;
63110;SDS011;49201;53.426;10.300;2022-07-29T01:52:58;6.30;;;2.80;;
63110;SDS011;49201;53.426;10.300;2022-07-29T01:55:28;6.37;;;2.50;;
63110;SDS011;49201;53.426;10.300;2022-07-29T01:57:56;4.73;;;2.97;;
63110;SDS011;49201;53.426;10.300;2022-07-29T02:00:24;4.33;;;2.37;;
63110;SDS011;49201;53.426;10.300;2022-07-29T02:02:51;5.77;;;2.70;;
63110;SDS011;49201;53.426;10.300;2022-07-29T02:05:20;5.37;;;2.60;;
63110;SDS011;49201;53.426;10.300;2022-07-29T02:07:48;4.07;;;2.03;;
63110;SDS011;49201;53.426;10.300;2022-07-29T02:10:15;7.27;;;2.80;;
63110;SDS011;49201;53.426;10.300;2022-07-29T02:12:43;4.67;;;2.63;;
63110;SDS011;49201;53.426;10.300;2022-07-29T02:15:11;5.33;;;2.37;;
63110;SDS011;49201;53.426;10.300;2022-07-29T02:17:49;4.47;;;2.40;;
63110;SDS011;49201;53.426;10.300;2022-07-29T02:20:18;3.50;;;2.00;;
63110;SDS011;49201;53.426;10.300;2022-07-29T02:22:44;5.53;;;2.50;;
63110;SDS011;49201;53.426;10.300;2022-07-29T02:25:12;3.93;;;2.53;;
63110;SDS011;49201;53.426;10.300;2022-07-29T02:27:38;7.77;;;2.50;;
63110;SDS011;49201;53.426;10.300;2022-07-29T02:30:06;6.37;;;2.73;;
63110;SDS011;49201;53.426;10.300;2022-07-29T02:32:34;4.27;;;2.60;;
63110;SDS011;49201;53.426;10.300;2022-07-29T02:35:01;5.63;;;2.43;;
63110;SDS011;49201;53.426;10.300;2022-07-29T02:37:28;5.17;;;2.30;;
63110;SDS011;49201;53.426;10.300;2022-07-29T02:39:55;7.00;;;2.47;;
63110;SDS011;49201;53.426;10.300;2022-07-29T02:42:23;4.90;;;2.50;;
63110;SDS011;49201;53.426;10.300;2022-07-29T02:44:51;3.67;;;2.23;;
63110;SDS011;49201;53.426;10.300;2022-07-29T02:49:56;5.43;;;2.50;;
63110;SDS011;49201;53.426;10.300;2022-07-29T02:52:27;3.77;;;2.40;;
63110;SDS011;49201;53.426;10.300;2022-07-29T02:55:29;5.57;;;2.33;;
63110;SDS011;49201;53.426;10.300;2022-07-29T02:58:02;7.03;;;2.57;;
63110;SDS011;49201;53.426;10.300;2022-07-29T03:00:34;4.47;;;2.87;;
63110;SDS011;49201;53.426;10.300;2022-07-29T03:03:03;5.50;;;2.27;;
63110;SDS011;49201;53.426;10.300;2022-07-29T03:05:32;6.63;;;2.43;;
63110;SDS011;49201;53.426;10.300;2022-07-29T03:08:01;3.73;;;2.23;;
63110;SDS011;49201;53.426;10.300;2022-07-29T03:10:29;7.57;;;2.60;;
63110;SDS011;49201;53.426;10.300;2022-07-29T03:12:56;3.47;;;2.00;;
63110;SDS011;49201;53.426;10.300;2022-07-29T03:15:22;4.40;;;2.47;;
63110;SDS011;49201;53.426;10.300;2022-07-29T03:17:49;6.87;;;3.17;;
63110;SDS011;49201;53.426;10.300;2022-07-29T03:20:16;5.13;;;2.27;;
63110;SDS011;49201;53.426;10.300;2022-07-29T03:22:42;6.90;;;2.50;;
63110;SDS011;49201;53.426;10.300;2022-07-29T03:25:09;7.23;;;2.67;;
63110;SDS011;49201;53.426;10.300;2022-07-29T03:27:36;5.67;;;2.80;;
63110;SDS011;49201;53.426;10.300;2022-07-29T03:30:02;6.10;;;2.37;;
63110;SDS011;49201;53.426;10.300;2022-07-29T03:32:28;5.43;;;2.50;;
63110;SDS011;49201;53.426;10.300;2022-07-29T03:34:53;4.83;;;2.47;;
63110;SDS011;49201;53.426;10.300;2022-07-29T03:37:19;4.87;;;2.47;;
63110;SDS011;49201;53.426;10.300;2022-07-29T03:39:44;5.60;;;2.73;;
63110;SDS011;49201;53.426;10.300;2022-07-29T03:42:13;7.43;;;2.70;;
63110;SDS011;49201;53.426;10.300;2022-07-29T03:44:41;7.67;;;2.60;;
63110;SDS011;49201;53.426;10.300;2022-07-29T03:47:09;5.07;;;2.20;;
63110;SDS011;49201;53.426;10.300;2022-07-29T03:49:36;7.20;;;2.50;;
63110;SDS011;49201;53.426;10.300;2022-07-29T03:52:03;4.90;;;2.30;;
63110;SDS011;49201;53.426;10.300;2022-07-29T03:54:29;4.83;;;2.30;;
63110;SDS011;49201;53.426;10.300;2022-07-29T03:56:55;4.27;;;2.37;;
63110;SDS011;49201;53.426;10.300;2022-07-29T03:59:24;4.13;;;2.07;;
63110;SDS011;49201;53.426;10.300;2022-07-29T04:01:52;5.77;;;2.47;;
63110;SDS011;49201;53.426;10.300;2022-07-29T04:04:20;7.07;;;2.33;;
63110;SDS011;49201;53.426;10.300;2022-07-29T04:06:46;7.37;;;2.33;;
63110;SDS011;49201;53.426;10.300;2022-07-29T04:09:12;6.07;;;2.40;;
63110;SDS011;49201;53.426;10.300;2022-07-29T04:11:38;4.03;;;2.10;;
63110;SDS011;49201;53.426;10.300;2022-07-29T04:14:05;4.60;;;2.23;;
63110;SDS011;49201;53.426;10.300;2022-07-29T04:16:31;5.47;;;2.20;;
63110;SDS011;49201;53.426;10.300;2022-07-29T04:18:57;9.13;;;2.73;;
63110;SDS011;49201;53.426;10.300;2022-07-29T04:21:22;6.10;;;2.77;;
63110;SDS011;49201;53.426;10.300;2022-07-29T04:23:48;5.87;;;2.57;;
63110;SDS011;49201;53.426;10.300;2022-07-29T04:26:15;4.07;;;2.20;;
63110;SDS011;49201;53.426;10.300;2022-07-29T04:28:44;4.60;;;2.53;;
63110;SDS011;49201;53.426;10.300;2022-07-29T04:31:10;6.57;;;2.40;;
63110;SDS011;49201;53.426;10.300;2022-07-29T04:33:37;5.47;;;2.10;;
63110;SDS011;49201;53.426;10.300;2022-07-29T04:36:02;13.67;;;2.90;;
63110;SDS011;49201;53.426;10.300;2022-07-29T04:38:28;3.37;;;2.10;;
63110;SDS011;49201;53.426;10.300;2022-07-29T04:40:53;5.43;;;2.50;;
63110;SDS011;49201;53.426;10.300;2022-07-29T04:43:19;5.80;;;2.83;;
63110;SDS011;49201;53.426;10.300;2022-07-29T04:45:44;6.20;;;2.70;;
63110;SDS011;49201;53.426;10.300;2022-07-29T04:48:10;4.47;;;1.97;;
63110;SDS011;49201;53.426;10.300;2022-07-29T04:50:37;4.77;;;2.13;;
63110;SDS011;49201;53.426;10.300;2022-07-29T04:53:03;5.93;;;2.57;;
63110;SDS011;49201;53.426;10.300;2022-07-29T04:55:28;8.30;;;2.57;;
63110;SDS011;49201;53.426;10.300;2022-07-29T04:57:54;3.87;;;2.10;;
63110;SDS011;49201;53.426;10.300;2022-07-29T05:00:19;4.40;;;2.40;;
63110;SDS011;49201;53.426;10.300;2022-07-29T05:02:45;6.33;;;2.30;;
63110;SDS011;49201;53.426;10.300;2022-07-29T05:05:10;4.80;;;1.97;;
63110;SDS011;49201;53.426;10.300;2022-07-29T05:07:36;3.10;;;1.90;;
63110;SDS011;49201;53.426;10.300;2022-07-29T05:10:02;4.67;;;1.93;;
63110;SDS011;49201;53.426;10.300;2022-07-29T05:12:28;6.10;;;2.50;;
63110;SDS011;49201;53.426;10.300;2022-07-29T05:14:53;7.47;;;2.23;;
63110;SDS011;49201;53.426;10.300;2022-07-29T05:17:19;7.83;;;2.53;;
63110;SDS011;49201;53.426;10.300;2022-07-29T05:19:44;5.57;;;2.60;;
63110;SDS011;49201;53.426;10.300;2022-07-29T05:22:10;5.43;;;2.10;;
63110;SDS011;49201;53.426;10.300;2022-07-29T05:24:35;4.57;;;2.40;;
63110;SDS011;49201;53.426;10.300;2022-07-29T05:27:00;5.47;;;2.30;;
63110;SDS011;49201;53.426;10.300;2022-07-29T05:29:26;5.30;;;2.10;;
63110;SDS011;49201;53.426;10.300;2022-07-29T05:31:51;5.60;;;2.60;;
63110;SDS011;49201;53.426;10.300;2022-07-29T05:34:18;4.43;;;2.27;;
63110;SDS011;49201;53.426;10.300;2022-07-29T05:36:44;5.77;;;2.40;;
63110;SDS011;49201;53.426;10.300;2022-07-29T05:39:10;4.10;;;2.00;;
63110;SDS011;49201;53.426;10.300;2022-07-29T05:41:36;5.47;;;2.40;;
63110;SDS011;49201;53.426;10.300;2022-07-29T05:44:01;5.53;;;1.90;;
63110;SDS011;49201;53.426;10.300;2022-07-29T05:46:27;6.17;;;2.37;;
63110;SDS011;49201;53.426;10.300;2022-07-29T05:48:53;4.33;;;2.00;;
63110;SDS011;49201;53.426;10.300;2022-07-29T05:51:18;4.70;;;2.60;;
63110;SDS011;49201;53.426;10.300;2022-07-29T05:53:44;6.07;;;2.23;;
63110;SDS011;49201;53.426;10.300;2022-07-29T05:56:10;4.70;;;2.50;;
63110;SDS011;49201;53.426;10.300;2022-07-29T05:58:35;5.60;;;2.20;;
63110;SDS011;49201;53.426;10.300;2022-07-29T06:01:01;3.47;;;2.40;;
63110;SDS011;49201;53.426;10.300;2022-07-29T06:03:27;10.33;;;2.23;;
63110;SDS011;49201;53.426;10.300;2022-07-29T06:05:53;5.00;;;2.30;;
63110;SDS011;49201;53.426;10.300;2022-07-29T06:08:19;6.80;;;2.30;;
63110;SDS011;49201;53.426;10.300;2022-07-29T06:10:44;3.87;;;2.00;;
63110;SDS011;49201;53.426;10.300;2022-07-29T06:13:10;7.13;;;2.67;;
63110;SDS011;49201;53.426;10.300;2022-07-29T06:15:36;4.43;;;2.00;;
63110;SDS011;49201;53.426;10.300;2022-07-29T06:18:02;6.03;;;2.23;;
63110;SDS011;49201;53.426;10.300;2022-07-29T06:20:28;3.27;;;2.07;;
63110;SDS011;49201;53.426;10.300;2022-07-29T06:22:55;3.23;;;2.23;;
63110;SDS011;49201;53.426;10.300;2022-07-29T06:25:21;5.63;;;2.20;;
63110;SDS011;49201;53.426;10.300;2022-07-29T06:27:46;5.00;;;2.20;;
63110;SDS011;49201;53.426;10.300;2022-07-29T06:30:12;5.37;;;2.10;;
63110;SDS011;49201;53.426;10.300;2022-07-29T06:32:38;4.43;;;2.03;;
63110;SDS011;49201;53.426;10.300;2022-07-29T06:35:03;5.57;;;2.53;;
63110;SDS011;49201;53.426;10.300;2022-07-29T06:37:29;4.23;;;1.93;;
63110;SDS011;49201;53.426;10.300;2022-07-29T06:39:54;4.50;;;2.10;;
63110;SDS011;49201;53.426;10.300;2022-07-29T06:42:44;5.93;;;2.20;;
63110;SDS011;49201;53.426;10.300;2022-07-29T06:45:10;5.03;;;2.30;;
63110;SDS011;49201;53.426;10.300;2022-07-29T06:47:36;6.90;;;2.27;;
63110;SDS011;49201;53.426;10.300;2022-07-29T06:50:02;4.67;;;2.13;;
63110;SDS011;49201;53.426;10.300;2022-07-29T06:52:28;6.67;;;2.23;;
63110;SDS011;49201;53.426;10.300;2022-07-29T06:54:54;3.90;;;2.07;;
63110;SDS011;49201;53.426;10.300;2022-07-29T06:57:20;5.97;;;2.30;;
63110;SDS011;49201;53.426;10.300;2022-07-29T06:59:46;5.00;;;2.27;;
63110;SDS011;49201;53.426;10.300;2022-07-29T07:02:12;4.27;;;2.10;;
63110;SDS011;49201;53.426;10.300;2022-07-29T07:04:38;4.47;;;2.03;;
63110;SDS011;49201;53.426;10.300;2022-07-29T07:07:03;5.20;;;2.17;;
63110;SDS011;49201;53.426;10.300;2022-07-29T07:09:29;4.07;;;1.80;;
63110;SDS011;49201;53.426;10.300;2022-07-29T07:11:54;4.93;;;2.03;;
63110;SDS011;49201;53.426;10.300;2022-07-29T07:14:20;5.63;;;2.13;;
63110;SDS011;49201;53.426;10.300;2022-07-29T07:16:45;4.77;;;2.30;;
63110;SDS011;49201;53.426;10.300;2022-07-29T07:19:11;7.90;;;2.40;;
63110;SDS011;49201;53.426;10.300;2022-07-29T07:21:36;13.77;;;2.60;;
63110;SDS011;49201;53.426;10.300;2022-07-29T07:24:02;3.90;;;2.30;;
63110;SDS011;49201;53.426;10.300;2022-07-29T07:26:27;3.97;;;2.20;;
63110;SDS011;49201;53.426;10.300;2022-07-29T07:28:53;4.97;;;1.70;;
63110;SDS011;49201;53.426;10.300;2022-07-29T07:31:19;4.60;;;2.10;;
63110;SDS011;49201;53.426;10.300;2022-07-29T07:33:45;5.90;;;2.30;;
63110;SDS011;49201;53.426;10.300;2022-07-29T07:36:10;4.13;;;2.03;;
63110;SDS011;49201;53.426;10.300;2022-07-29T07:38:36;6.97;;;2.70;;
63110;SDS011;49201;53.426;10.300;2022-07-29T07:41:01;4.10;;;2.13;;
63110;SDS011;49201;53.426;10.300;2022-07-29T07:43:27;5.43;;;2.20;;
63110;SDS011;49201;53.426;10.300;2022-07-29T07:45:52;3.50;;;1.90;;
63110;SDS011;49201;53.426;10.300;2022-07-29T07:48:17;5.17;;;2.10;;
63110;SDS011;49201;53.426;10.300;2022-07-29T07:50:43;4.73;;;2.10;;
63110;SDS011;49201;53.426;10.300;2022-07-29T07:53:09;5.40;;;2.20;;
63110;SDS011;49201;53.426;10.300;2022-07-29T07:55:39;6.27;;;1.93;;
63110;SDS011;49201;53.426;10.300;2022-07-29T07:58:05;5.63;;;1.93;;
63110;SDS011;49201;53.426;10.300;2022-07-29T08:00:31;4.73;;;2.10;;
63110;SDS011;49201;53.426;10.300;2022-07-29T08:02:57;6.77;;;2.13;;
63110;SDS011;49201;53.426;10.300;2022-07-29T08:05:23;5.60;;;2.00;;
63110;SDS011;49201;53.426;10.300;2022-07-29T08:07:48;4.93;;;2.20;;
63110;SDS011;49201;53.426;10.300;2022-07-29T08:10:15;8.73;;;2.00;;
63110;SDS011;49201;53.426;10.300;2022-07-29T08:13:03;4.13;;;2.10;;
63110;SDS011;49201;53.426;10.300;2022-07-29T08:15:30;5.70;;;2.00;;
63110;SDS011;49201;53.426;10.300;2022-07-29T08:17:55;4.90;;;1.90;;
63110;SDS011;49201;53.426;10.300;2022-07-29T08:20:21;7.07;;;2.30;;
63110;SDS011;49201;53.426;10.300;2022-07-29T08:22:46;6.77;;;2.13;;
63110;SDS011;49201;53.426;10.300;2022-07-29T08:25:12;7.30;;;2.00;;
63110;SDS011;49201;53.426;10.300;2022-07-29T08:27:37;6.23;;;2.03;;
63110;SDS011;49201;53.426;10.300;2022-07-29T08:30:03;5.33;;;2.07;;
63110;SDS011;49201;53.426;10.300;2022-07-29T08:32:28;4.67;;;2.10;;
63110;SDS011;49201;53.426;10.300;2022-07-29T08:34:54;3.77;;;2.00;;
63110;SDS011;49201;53.426;10.300;2022-07-29T08:37:20;4.47;;;1.80;;
63110;SDS011;49201;53.426;10.300;2022-07-29T08:39:45;9.07;;;2.30;;
63110;SDS011;49201;53.426;10.300;2022-07-29T08:42:11;5.90;;;2.22;;
63110;SDS011;49201;53.426;10.300;2022-07-29T08:44:36;6.63;;;2.10;;
63110;SDS011;49201;53.426;10.300;2022-07-29T08:47:02;4.70;;;2.00;;
63110;SDS011;49201;53.426;10.300;2022-07-29T08:49:28;3.17;;;1.88;;
63110;SDS011;49201;53.426;10.300;2022-07-29T08:51:54;3.55;;;1.95;;
63110;SDS011;49201;53.426;10.300;2022-07-29T08:54:21;3.85;;;1.90;;
63110;SDS011;49201;53.426;10.300;2022-07-29T08:56:48;4.13;;;2.08;;
63110;SDS011;49201;53.426;10.300;2022-07-29T08:59:15;3.17;;;1.85;;
63110;SDS011;49201;53.426;10.300;2022-07-29T09:01:47;4.18;;;1.73;;
63110;SDS011;49201;53.426;10.300;2022-07-29T09:04:15;4.88;;;1.50;;
63110;SDS011;49201;53.426;10.300;2022-07-29T09:06:43;4.95;;;1.63;;
63110;SDS011;49201;53.426;10.300;2022-07-29T09:09:11;5.22;;;2.30;;
63110;SDS011;49201;53.426;10.300;2022-07-29T09:11:39;2.70;;;1.70;;
63110;SDS011;49201;53.426;10.300;2022-07-29T09:14:05;6.57;;;2.00;;
63110;SDS011;49201;53.426;10.300;2022-07-29T09:16:47;6.28;;;1.88;;
63110;SDS011;49201;53.426;10.300;2022-07-29T09:19:47;5.22;;;1.95;;
63110;SDS011;49201;53.426;10.300;2022-07-29T09:22:06;4.22;;;1.70;;
63110;SDS011;49201;53.426;10.300;2022-07-29T09:27:22;4.82;;;1.90;;
63110;SDS011;49201;53.426;10.300;2022-07-29T09:29:55;4.72;;;1.65;;
63110;SDS011;49201;53.426;10.300;2022-07-29T09:32:22;3.00;;;1.75;;
63110;SDS011;49201;53.426;10.300;2022-07-29T09:34:47;2.53;;;1.75;;
63110;SDS011;49201;53.426;10.300;2022-07-29T09:37:25;6.13;;;2.20;;
63110;SDS011;49201;53.426;10.300;2022-07-29T09:39:53;5.97;;;2.05;;
63110;SDS011;49201;53.426;10.300;2022-07-29T09:42:29;4.93;;;1.83;;
63110;SDS011;49201;53.426;10.300;2022-07-29T09:44:57;4.70;;;2.10;;
63110;SDS011;49201;53.426;10.300;2022-07-29T09:47:23;4.90;;;1.80;;
63110;SDS011;49201;53.426;10.300;2022-07-29T09:50:06;4.22;;;1.55;;
63110;SDS011;49201;53.426;10.300;2022-07-29T09:52:32;5.05;;;1.50;;
63110;SDS011;49201;53.426;10.300;2022-07-29T09:55:10;2.95;;;1.50;;
63110;SDS011;49201;53.426;10.300;2022-07-29T09:57:36;5.13;;;1.60;;
63110;SDS011;49201;53.426;10.300;2022-07-29T10:02:40;5.45;;;1.85;;
63110;SDS011;49201;53.426;10.300;2022-07-29T10:05:30;4.22;;;1.70;;
63110;SDS011;49201;53.426;10.300;2022-07-29T10:07:55;5.05;;;1.70;;
63110;SDS011;49201;53.426;10.300;2022-07-29T10:12:51;6.22;;;1.80;;
63110;SDS011;49201;53.426;10.300;2022-07-29T10:15:22;5.57;;;1.70;;
63110;SDS011;49201;53.426;10.300;2022-07-29T10:17:52;3.67;;;1.50;;
63110;SDS011;49201;53.426;10.300;2022-07-29T10:20:20;2.75;;;1.50;;
63110;SDS011;49201;53.426;10.300;2022-07-29T10:22:49;4.00;;;1.52;;
63110;SDS011;49201;53.426;10.300;2022-07-29T10:25:16;4.65;;;1.40;;
63110;SDS011;49201;53.426;10.300;2022-07-29T10:27:43;4.68;;;1.55;;
63110;SDS011;49201;53.426;10.300;2022-07-29T10:30:10;4.55;;;1.70;;
63110;SDS011;49201;53.426;10.300;2022-07-29T10:35:39;4.18;;;1.55;;
63110;SDS011;49201;53.426;10.300;2022-07-29T10:41:34;3.03;;;1.60;;
63110;SDS011;49201;53.426;10.300;2022-07-29T10:46:39;5.05;;;1.73;;
63110;SDS011;49201;53.426;10.300;2022-07-29T10:49:16;3.95;;;2.25;;
63110;SDS011;49201;53.426;10.300;2022-07-29T10:52:05;3.60;;;1.90;;
63110;SDS011;49201;53.426;10.300;2022-07-29T10:57:14;4.90;;;1.75;;
63110;SDS011;49201;53.426;10.300;2022-07-29T10:59:46;4.18;;;1.70;;
63110;SDS011;49201;53.426;10.300;2022-07-29T11:07:22;5.88;;;1.50;;
63110;SDS011;49201;53.426;10.300;2022-07-29T11:15:06;4.10;;;1.70;;
63110;SDS011;49201;53.426;10.300;2022-07-29T11:20:31;5.28;;;1.75;;
63110;SDS011;49201;53.426;10.300;2022-07-29T11:28:53;5.25;;;1.80;;
63110;SDS011;49201;53.426;10.300;2022-07-29T11:31:31;7.22;;;1.77;;
63110;SDS011;49201;53.426;10.300;2022-07-29T11:37:29;4.65;;;1.55;;
63110;SDS011;49201;53.426;10.300;2022-07-29T11:39:37;2.47;;;1.50;;
63110;SDS011;49201;53.426;10.300;2022-07-29T11:45:00;4.07;;;1.40;;
63110;SDS011;49201;53.426;10.300;2022-07-29T11:47:37;4.22;;;1.63;;
63110;SDS011;49201;53.426;10.300;2022-07-29T11:50:06;4.32;;;1.50;;
63110;SDS011;49201;53.426;10.300;2022-07-29T11:52:43;4.47;;;1.83;;
63110;SDS011;49201;53.426;10.300;2022-07-29T11:55:21;2.95;;;1.40;;
63110;SDS011;49201;53.426;10.300;2022-07-29T11:57:56;4.47;;;1.75;;
63110;SDS011;49201;53.426;10.300;2022-07-29T12:03:04;5.03;;;1.70;;
63110;SDS011;49201;53.426;10.300;2022-07-29T12:05:32;3.35;;;1.52;;
63110;SDS011;49201;53.426;10.300;2022-07-29T12:10:47;4.72;;;1.80;;
63110;SDS011;49201;53.426;10.300;2022-07-29T12:13:15;3.65;;;1.50;;
63110;SDS011;49201;53.426;10.300;2022-07-29T12:15:42;8.23;;;1.80;;
63110;SDS011;49201;53.426;10.300;2022-07-29T12:18:09;2.95;;;1.38;;
63110;SDS011;49201;53.426;10.300;2022-07-29T12:20:36;3.83;;;1.58;;
63110;SDS011;49201;53.426;10.300;2022-07-29T12:23:06;3.22;;;1.70;;
63110;SDS011;49201;53.426;10.300;2022-07-29T12:25:34;5.25;;;2.00;;
63110;SDS011;49201;53.426;10.300;2022-07-29T12:28:05;4.47;;;1.60;;
63110;SDS011;49201;53.426;10.300;2022-07-29T12:33:12;2.90;;;1.55;;
63110;SDS011;49201;53.426;10.300;2022-07-29T12:35:49;4.13;;;1.58;;
63110;SDS011;49201;53.426;10.300;2022-07-29T12:38:18;5.45;;;1.83;;
63110;SDS011;49201;53.426;10.300;2022-07-29T12:40:45;4.45;;;1.80;;
63110;SDS011;49201;53.426;10.300;2022-07-29T12:43:19;3.40;;;1.70;;
63110;SDS011;49201;53.426;10.300;2022-07-29T12:45:47;4.45;;;1.67;;
63110;SDS011;49201;53.426;10.300;2022-07-29T12:48:15;3.17;;;1.27;;
63110;SDS011;49201;53.426;10.300;2022-07-29T12:50:54;6.25;;;1.70;;
63110;SDS011;49201;53.426;10.300;2022-07-29T12:53:24;5.28;;;1.70;;
63110;SDS011;49201;53.426;10.300;2022-07-29T12:55:51;2.55;;;1.40;;
63110;SDS011;49201;53.426;10.300;2022-07-29T13:01:05;3.25;;;1.75;;
63110;SDS011;49201;53.426;10.300;2022-07-29T13:11:40;3.30;;;1.55;;
63110;SDS011;49201;53.426;10.300;2022-07-29T13:14:10;6.32;;;1.80;;
63110;SDS011;49201;53.426;10.300;2022-07-29T13:16:59;3.75;;;1.52;;
63110;SDS011;49201;53.426;10.300;2022-07-29T13:22:10;4.03;;;1.75;;
63110;SDS011;49201;53.426;10.300;2022-07-29T13:27:23;3.00;;;1.50;;
63110;SDS011;49201;53.426;10.300;2022-07-29T13:29:50;3.72;;;1.70;;
63110;SDS011;49201;53.426;10.300;2022-07-29T13:32:17;4.47;;;1.70;;
63110;SDS011;49201;53.426;10.300;2022-07-29T13:34:43;4.22;;;1.58;;
63110;SDS011;49201;53.426;10.300;2022-07-29T13:37:09;2.60;;;1.60;;
63110;SDS011;49201;53.426;10.300;2022-07-29T13:39:35;3.45;;;1.70;;
63110;SDS011;49201;53.426;10.300;2022-07-29T13:42:02;4.05;;;1.90;;
63110;SDS011;49201;53.426;10.300;2022-07-29T13:44:28;3.20;;;1.30;;
63110;SDS011;49201;53.426;10.300;2022-07-29T13:46:53;4.80;;;1.65;;
63110;SDS011;49201;53.426;10.300;2022-07-29T13:49:19;6.43;;;1.55;;
63110;SDS011;49201;53.426;10.300;2022-07-29T13:51:44;7.00;;;1.70;;
63110;SDS011;49201;53.426;10.300;2022-07-29T13:54:10;7.82;;;1.52;;
63110;SDS011;49201;53.426;10.300;2022-07-29T13:56:35;3.03;;;1.52;;
63110;SDS011;49201;53.426;10.300;2022-07-29T13:59:00;5.68;;;1.75;;
63110;SDS011;49201;53.426;10.300;2022-07-29T14:01:26;4.35;;;1.75;;
63110;SDS011;49201;53.426;10.300;2022-07-29T14:03:52;3.50;;;1.65;;
63110;SDS011;49201;53.426;10.300;2022-07-29T14:06:18;2.83;;;1.42;;
63110;SDS011;49201;53.426;10.300;2022-07-29T14:08:44;4.45;;;1.90;;
63110;SDS011;49201;53.426;10.300;2022-07-29T14:11:10;4.30;;;1.70;;
63110;SDS011;49201;53.426;10.300;2022-07-29T14:13:35;4.47;;;2.47;;
63110;SDS011;49201;53.426;10.300;2022-07-29T14:16:00;2.55;;;1.67;;
63110;SDS011;49201;53.426;10.300;2022-07-29T14:18:26;3.75;;;1.63;;
63110;SDS011;49201;53.426;10.300;2022-07-29T14:20:51;6.43;;;1.70;;
63110;SDS011;49201;53.426;10.300;2022-07-29T14:23:17;5.03;;;2.00;;
63110;SDS011;49201;53.426;10.300;2022-07-29T14:25:43;6.30;;;2.00;;
63110;SDS011;49201;53.426;10.300;2022-07-29T14:28:08;6.72;;;2.20;;
63110;SDS011;49201;53.426;10.300;2022-07-29T14:30:34;2.72;;;1.90;;
63110;SDS011;49201;53.426;10.300;2022-07-29T14:32:59;5.22;;;1.95;;
63110;SDS011;49201;53.426;10.300;2022-07-29T14:35:25;4.85;;;2.13;;
63110;SDS011;49201;53.426;10.300;2022-07-29T14:37:50;3.47;;;1.80;;
63110;SDS011;49201;53.426;10.300;2022-07-29T14:40:15;3.78;;;2.13;;
63110;SDS011;49201;53.426;10.300;2022-07-29T14:42:41;5.70;;;2.15;;
63110;SDS011;49201;53.426;10.300;2022-07-29T14:45:07;3.53;;;1.85;;
63110;SDS011;49201;53.426;10.300;2022-07-29T14:47:33;3.58;;;1.85;;
63110;SDS011;49201;53.426;10.300;2022-07-29T14:49:59;5.93;;;2.00;;
63110;SDS011;49201;53.426;10.300;2022-07-29T14:52:24;5.47;;;2.35;;
63110;SDS011;49201;53.426;10.300;2022-07-29T14:54:50;4.25;;;1.95;;
63110;SDS011;49201;53.426;10.300;2022-07-29T14:57:15;6.07;;;2.20;;
63110;SDS011;49201;53.426;10.300;2022-07-29T14:59:41;4.43;;;2.10;;
63110;SDS011;49201;53.426;10.300;2022-07-29T15:02:06;4.40;;;1.90;;
63110;SDS011;49201;53.426;10.300;2022-07-29T15:04:32;5.50;;;2.30;;
63110;SDS011;49201;53.426;10.300;2022-07-29T15:06:57;6.93;;;2.00;;
63110;SDS011;49201;53.426;10.300;2022-07-29T15:09:23;6.82;;;2.33;;
63110;SDS011;49201;53.426;10.300;2022-07-29T15:11:48;5.60;;;2.25;;
63110;SDS011;49201;53.426;10.300;2022-07-29T15:14:14;5.35;;;1.98;;
63110;SDS011;49201;53.426;10.300;2022-07-29T15:16:39;6.60;;;1.80;;
63110;SDS011;49201;53.426;10.300;2022-07-29T15:19:07;6.88;;;1.80;;
63110;SDS011;49201;53.426;10.300;2022-07-29T15:21:33;5.97;;;2.17;;
63110;SDS011;49201;53.426;10.300;2022-07-29T15:23:59;6.38;;;1.92;;
63110;SDS011;49201;53.426;10.300;2022-07-29T15:26:24;4.32;;;1.63;;
63110;SDS011;49201;53.426;10.300;2022-07-29T15:28:50;7.30;;;1.90;;
63110;SDS011;49201;53.426;10.300;2022-07-29T15:31:16;8.18;;;2.33;;
63110;SDS011;49201;53.426;10.300;2022-07-29T15:33:41;4.07;;;1.75;;
63110;SDS011;49201;53.426;10.300;2022-07-29T15:36:06;10.38;;;2.03;;
63110;SDS011;49201;53.426;10.300;2022-07-29T15:38:32;8.75;;;2.13;;
63110;SDS011;49201;53.426;10.300;2022-07-29T15:40:58;3.47;;;2.00;;
63110;SDS011;49201;53.426;10.300;2022-07-29T15:43:23;4.95;;;1.80;;
63110;SDS011;49201;53.426;10.300;2022-07-29T15:45:49;6.32;;;1.85;;
63110;SDS011;49201;53.426;10.300;2022-07-29T15:48:33;3.95;;;2.05;;
63110;SDS011;49201;53.426;10.300;2022-07-29T15:51:02;10.40;;;2.40;;
63110;SDS011;49201;53.426;10.300;2022-07-29T15:53:27;3.65;;;1.67;;
63110;SDS011;49201;53.426;10.300;2022-07-29T15:55:53;4.15;;;1.80;;
63110;SDS011;49201;53.426;10.300;2022-07-29T15:58:19;4.30;;;1.90;;